sensor_id;sensor_type;location;lat;lon;timestamp;P1;durP1;ratioP1;P2;durP2;ratioP2
15443;SDS011;7822;48.146;11.576;2022-08-30T00:01:22;9.75;;;8.77;;
15443;SDS011;7822;48.146;11.576;2022-08-30T00:03:50;8.50;;;7.70;;
15443;SDS011;7822;48.146;11.576;2022-08-30T00:06:20;10.13;;;9.13;;
15443;SDS011;7822;48.146;11.576;2022-08-30T00:08:49;8.60;;;7.82;;
15443;SDS011;7822;48.146;11.576;2022-08-30T00:11:21;10.30;;;9.20;;
15443;SDS011;7822;48.146;11.576;2022-08-30T00:13:50;10.10;;;9.15;;
15443;SDS011;7822;48.146;11.576;2022-08-30T00:16:20;10.20;;;9.20;;
15443;SDS011;7822;48.146;11.576;2022-08-30T00:18:49;9.85;;;8.88;;
15443;SDS011;7822;48.146;11.576;2022-08-30T00:21:17;8.85;;;8.02;;
15443;SDS011;7822;48.146;11.576;2022-08-30T00:23:45;9.13;;;8.32;;
15443;SDS011;7822;48.146;11.576;2022-08-30T00:26:13;9.15;;;8.45;;
15443;SDS011;7822;48.146;11.576;2022-08-30T00:28:42;10.50;;;9.60;;
15443;SDS011;7822;48.146;11.576;2022-08-30T00:31:09;8.82;;;8.10;;
15443;SDS011;7822;48.146;11.576;2022-08-30T00:33:40;8.70;;;8.00;;
15443;SDS011;7822;48.146;11.576;2022-08-30T00:36:08;10.07;;;9.10;;
15443;SDS011;7822;48.146;11.576;2022-08-30T00:38:36;10.20;;;9.18;;
15443;SDS011;7822;48.146;11.576;2022-08-30T00:41:04;9.30;;;8.40;;
15443;SDS011;7822;48.146;11.576;2022-08-30T00:43:32;9.60;;;8.30;;
15443;SDS011;7822;48.146;11.576;2022-08-30T00:46:03;9.98;;;8.98;;
15443;SDS011;7822;48.146;11.576;2022-08-30T00:48:35;9.88;;;8.95;;
15443;SDS011;7822;48.146;11.576;2022-08-30T00:51:06;8.82;;;8.02;;
15443;SDS011;7822;48.146;11.576;2022-08-30T00:53:37;10.88;;;9.75;;
15443;SDS011;7822;48.146;11.576;2022-08-30T00:56:09;9.93;;;8.90;;
15443;SDS011;7822;48.146;11.576;2022-08-30T00:58:41;9.70;;;8.80;;
15443;SDS011;7822;48.146;11.576;2022-08-30T01:01:13;8.60;;;7.75;;
15443;SDS011;7822;48.146;11.576;2022-08-30T01:03:42;9.00;;;8.20;;
15443;SDS011;7822;48.146;11.576;2022-08-30T01:06:11;9.52;;;8.23;;
15443;SDS011;7822;48.146;11.576;2022-08-30T01:08:40;10.55;;;9.55;;
15443;SDS011;7822;48.146;11.576;2022-08-30T01:11:09;10.27;;;9.38;;
15443;SDS011;7822;48.146;11.576;2022-08-30T01:13:39;10.48;;;9.48;;
15443;SDS011;7822;48.146;11.576;2022-08-30T01:16:07;9.98;;;9.00;;
15443;SDS011;7822;48.146;11.576;2022-08-30T01:18:36;10.07;;;9.07;;
15443;SDS011;7822;48.146;11.576;2022-08-30T01:21:08;9.40;;;8.60;;
15443;SDS011;7822;48.146;11.576;2022-08-30T01:23:45;9.43;;;8.38;;
15443;SDS011;7822;48.146;11.576;2022-08-30T01:26:16;8.35;;;7.65;;
15443;SDS011;7822;48.146;11.576;2022-08-30T01:28:48;9.10;;;8.23;;
15443;SDS011;7822;48.146;11.576;2022-08-30T01:31:20;8.30;;;7.50;;
15443;SDS011;7822;48.146;11.576;2022-08-30T01:33:48;9.07;;;8.27;;
15443;SDS011;7822;48.146;11.576;2022-08-30T01:36:17;8.13;;;7.32;;
15443;SDS011;7822;48.146;11.576;2022-08-30T01:38:49;9.10;;;8.20;;
15443;SDS011;7822;48.146;11.576;2022-08-30T01:41:19;8.25;;;7.45;;
15443;SDS011;7822;48.146;11.576;2022-08-30T01:43:49;8.15;;;7.35;;
15443;SDS011;7822;48.146;11.576;2022-08-30T01:46:20;8.10;;;7.43;;
15443;SDS011;7822;48.146;11.576;2022-08-30T01:48:50;8.05;;;7.25;;
15443;SDS011;7822;48.146;11.576;2022-08-30T01:51:20;8.60;;;7.90;;
15443;SDS011;7822;48.146;11.576;2022-08-30T01:53:51;8.95;;;8.05;;
15443;SDS011;7822;48.146;11.576;2022-08-30T01:56:20;8.32;;;7.53;;
15443;SDS011;7822;48.146;11.576;2022-08-30T01:58:48;8.75;;;7.90;;
15443;SDS011;7822;48.146;11.576;2022-08-30T02:01:17;8.65;;;7.85;;
15443;SDS011;7822;48.146;11.576;2022-08-30T02:03:47;8.63;;;7.93;;
15443;SDS011;7822;48.146;11.576;2022-08-30T02:06:15;8.18;;;7.38;;
15443;SDS011;7822;48.146;11.576;2022-08-30T02:08:45;8.32;;;7.43;;
15443;SDS011;7822;48.146;11.576;2022-08-30T02:11:15;7.45;;;6.85;;
15443;SDS011;7822;48.146;11.576;2022-08-30T02:13:44;8.70;;;7.90;;
15443;SDS011;7822;48.146;11.576;2022-08-30T02:16:14;7.95;;;7.25;;
15443;SDS011;7822;48.146;11.576;2022-08-30T02:18:43;8.38;;;7.57;;
15443;SDS011;7822;48.146;11.576;2022-08-30T02:21:12;8.93;;;8.13;;
15443;SDS011;7822;48.146;11.576;2022-08-30T02:23:41;8.48;;;7.68;;
15443;SDS011;7822;48.146;11.576;2022-08-30T02:26:09;7.82;;;7.22;;
15443;SDS011;7822;48.146;11.576;2022-08-30T02:28:38;8.02;;;7.22;;
15443;SDS011;7822;48.146;11.576;2022-08-30T02:31:15;8.32;;;7.53;;
15443;SDS011;7822;48.146;11.576;2022-08-30T02:33:46;7.95;;;7.25;;
15443;SDS011;7822;48.146;11.576;2022-08-30T02:36:15;8.02;;;7.30;;
15443;SDS011;7822;48.146;11.576;2022-08-30T02:38:43;8.05;;;7.25;;
15443;SDS011;7822;48.146;11.576;2022-08-30T02:41:11;8.48;;;7.78;;
15443;SDS011;7822;48.146;11.576;2022-08-30T02:43:40;8.50;;;7.70;;
15443;SDS011;7822;48.146;11.576;2022-08-30T02:46:08;8.50;;;7.70;;
15443;SDS011;7822;48.146;11.576;2022-08-30T02:48:36;7.30;;;6.70;;
15443;SDS011;7822;48.146;11.576;2022-08-30T02:51:05;8.23;;;7.43;;
15443;SDS011;7822;48.146;11.576;2022-08-30T02:53:37;8.65;;;7.90;;
15443;SDS011;7822;48.146;11.576;2022-08-30T02:56:05;8.82;;;7.95;;
15443;SDS011;7822;48.146;11.576;2022-08-30T02:58:34;7.93;;;7.15;;
15443;SDS011;7822;48.146;11.576;2022-08-30T03:01:04;8.68;;;7.35;;
15443;SDS011;7822;48.146;11.576;2022-08-30T03:03:32;7.63;;;6.70;;
15443;SDS011;7822;48.146;11.576;2022-08-30T03:06:00;9.23;;;8.05;;
15443;SDS011;7822;48.146;11.576;2022-08-30T03:08:28;8.20;;;7.47;;
15443;SDS011;7822;48.146;11.576;2022-08-30T03:10:57;7.40;;;6.57;;
15443;SDS011;7822;48.146;11.576;2022-08-30T03:13:25;8.30;;;7.43;;
15443;SDS011;7822;48.146;11.576;2022-08-30T03:15:53;8.43;;;7.72;;
15443;SDS011;7822;48.146;11.576;2022-08-30T03:18:23;8.60;;;7.72;;
15443;SDS011;7822;48.146;11.576;2022-08-30T03:20:51;7.95;;;7.15;;
15443;SDS011;7822;48.146;11.576;2022-08-30T03:23:20;7.78;;;7.07;;
15443;SDS011;7822;48.146;11.576;2022-08-30T03:25:48;8.05;;;7.30;;
15443;SDS011;7822;48.146;11.576;2022-08-30T03:28:16;7.88;;;7.07;;
15443;SDS011;7822;48.146;11.576;2022-08-30T03:30:44;7.05;;;6.45;;
15443;SDS011;7822;48.146;11.576;2022-08-30T03:33:13;7.82;;;7.05;;
15443;SDS011;7822;48.146;11.576;2022-08-30T03:35:45;7.03;;;6.38;;
15443;SDS011;7822;48.146;11.576;2022-08-30T03:38:13;7.13;;;6.45;;
15443;SDS011;7822;48.146;11.576;2022-08-30T03:40:41;7.35;;;6.65;;
15443;SDS011;7822;48.146;11.576;2022-08-30T03:43:09;7.97;;;7.32;;
15443;SDS011;7822;48.146;11.576;2022-08-30T03:45:37;7.43;;;6.72;;
15443;SDS011;7822;48.146;11.576;2022-08-30T03:48:05;7.32;;;6.63;;
15443;SDS011;7822;48.146;11.576;2022-08-30T03:50:33;7.80;;;7.03;;
15443;SDS011;7822;48.146;11.576;2022-08-30T03:53:03;7.88;;;7.18;;
15443;SDS011;7822;48.146;11.576;2022-08-30T03:55:31;7.85;;;7.05;;
15443;SDS011;7822;48.146;11.576;2022-08-30T03:57:59;7.88;;;7.07;;
15443;SDS011;7822;48.146;11.576;2022-08-30T04:00:27;7.88;;;7.18;;
15443;SDS011;7822;48.146;11.576;2022-08-30T04:02:55;7.88;;;7.13;;
15443;SDS011;7822;48.146;11.576;2022-08-30T04:05:22;7.85;;;7.05;;
15443;SDS011;7822;48.146;11.576;2022-08-30T04:07:50;6.78;;;6.18;;
15443;SDS011;7822;48.146;11.576;2022-08-30T04:10:19;8.02;;;7.22;;
15443;SDS011;7822;48.146;11.576;2022-08-30T04:12:47;7.70;;;6.95;;
15443;SDS011;7822;48.146;11.576;2022-08-30T04:15:16;8.40;;;7.70;;
15443;SDS011;7822;48.146;11.576;2022-08-30T04:17:45;7.95;;;7.22;;
15443;SDS011;7822;48.146;11.576;2022-08-30T04:20:13;8.50;;;7.80;;
15443;SDS011;7822;48.146;11.576;2022-08-30T04:22:41;9.88;;;8.88;;
15443;SDS011;7822;48.146;11.576;2022-08-30T04:25:09;8.90;;;8.00;;
15443;SDS011;7822;48.146;11.576;2022-08-30T04:27:42;8.80;;;8.00;;
15443;SDS011;7822;48.146;11.576;2022-08-30T04:30:11;8.88;;;8.07;;
15443;SDS011;7822;48.146;11.576;2022-08-30T04:32:40;9.50;;;8.55;;
15443;SDS011;7822;48.146;11.576;2022-08-30T04:35:08;8.40;;;7.60;;
15443;SDS011;7822;48.146;11.576;2022-08-30T04:37:37;8.48;;;7.57;;
15443;SDS011;7822;48.146;11.576;2022-08-30T04:40:06;8.20;;;7.40;;
15443;SDS011;7822;48.146;11.576;2022-08-30T04:42:34;8.00;;;7.22;;
15443;SDS011;7822;48.146;11.576;2022-08-30T04:45:05;8.48;;;7.60;;
15443;SDS011;7822;48.146;11.576;2022-08-30T04:47:36;8.80;;;7.13;;
15443;SDS011;7822;48.146;11.576;2022-08-30T04:50:05;7.50;;;6.90;;
15443;SDS011;7822;48.146;11.576;2022-08-30T04:52:34;10.05;;;7.38;;
15443;SDS011;7822;48.146;11.576;2022-08-30T04:55:02;9.90;;;7.57;;
15443;SDS011;7822;48.146;11.576;2022-08-30T04:57:30;8.60;;;7.72;;
15443;SDS011;7822;48.146;11.576;2022-08-30T04:59:58;8.38;;;7.55;;
15443;SDS011;7822;48.146;11.576;2022-08-30T05:02:27;8.07;;;7.38;;
15443;SDS011;7822;48.146;11.576;2022-08-30T05:04:55;7.82;;;7.13;;
15443;SDS011;7822;48.146;11.576;2022-08-30T05:07:40;7.13;;;6.53;;
15443;SDS011;7822;48.146;11.576;2022-08-30T05:10:08;7.45;;;6.75;;
15443;SDS011;7822;48.146;11.576;2022-08-30T05:12:37;7.75;;;7.05;;
15443;SDS011;7822;48.146;11.576;2022-08-30T05:15:05;8.30;;;6.90;;
15443;SDS011;7822;48.146;11.576;2022-08-30T05:17:35;7.35;;;6.72;;
15443;SDS011;7822;48.146;11.576;2022-08-30T05:20:03;9.18;;;7.65;;
15443;SDS011;7822;48.146;11.576;2022-08-30T05:22:31;7.50;;;6.80;;
15443;SDS011;7822;48.146;11.576;2022-08-30T05:25:02;7.70;;;6.90;;
15443;SDS011;7822;48.146;11.576;2022-08-30T05:27:30;6.85;;;6.20;;
15443;SDS011;7822;48.146;11.576;2022-08-30T05:30:03;7.03;;;6.43;;
15443;SDS011;7822;48.146;11.576;2022-08-30T05:32:31;7.30;;;6.60;;
15443;SDS011;7822;48.146;11.576;2022-08-30T05:35:00;7.78;;;6.40;;
15443;SDS011;7822;48.146;11.576;2022-08-30T05:37:28;9.68;;;7.13;;
15443;SDS011;7822;48.146;11.576;2022-08-30T05:39:56;6.72;;;6.13;;
15443;SDS011;7822;48.146;11.576;2022-08-30T05:42:24;8.68;;;6.95;;
15443;SDS011;7822;48.146;11.576;2022-08-30T05:44:52;9.02;;;6.75;;
15443;SDS011;7822;48.146;11.576;2022-08-30T05:47:20;7.85;;;7.18;;
15443;SDS011;7822;48.146;11.576;2022-08-30T05:49:48;7.35;;;6.47;;
15443;SDS011;7822;48.146;11.576;2022-08-30T05:52:18;7.82;;;7.13;;
15443;SDS011;7822;48.146;11.576;2022-08-30T05:54:50;8.88;;;7.32;;
15443;SDS011;7822;48.146;11.576;2022-08-30T05:57:19;7.85;;;7.15;;
15443;SDS011;7822;48.146;11.576;2022-08-30T05:59:47;8.18;;;7.38;;
15443;SDS011;7822;48.146;11.576;2022-08-30T06:02:15;7.80;;;7.03;;
15443;SDS011;7822;48.146;11.576;2022-08-30T06:04:43;7.28;;;6.60;;
15443;SDS011;7822;48.146;11.576;2022-08-30T06:07:11;7.50;;;6.78;;
15443;SDS011;7822;48.146;11.576;2022-08-30T06:09:43;7.55;;;6.85;;
15443;SDS011;7822;48.146;11.576;2022-08-30T06:12:11;8.10;;;7.18;;
15443;SDS011;7822;48.146;11.576;2022-08-30T06:14:39;7.65;;;6.80;;
15443;SDS011;7822;48.146;11.576;2022-08-30T06:17:06;7.95;;;6.70;;
15443;SDS011;7822;48.146;11.576;2022-08-30T06:19:34;6.30;;;5.80;;
15443;SDS011;7822;48.146;11.576;2022-08-30T06:22:02;7.18;;;6.15;;
15443;SDS011;7822;48.146;11.576;2022-08-30T06:24:30;7.00;;;6.40;;
15443;SDS011;7822;48.146;11.576;2022-08-30T06:27:19;7.70;;;6.35;;
15443;SDS011;7822;48.146;11.576;2022-08-30T06:29:49;6.68;;;6.05;;
15443;SDS011;7822;48.146;11.576;2022-08-30T06:32:17;7.43;;;6.68;;
15443;SDS011;7822;48.146;11.576;2022-08-30T06:34:45;6.65;;;6.05;;
15443;SDS011;7822;48.146;11.576;2022-08-30T06:37:13;7.68;;;6.20;;
15443;SDS011;7822;48.146;11.576;2022-08-30T06:39:55;6.65;;;5.95;;
15443;SDS011;7822;48.146;11.576;2022-08-30T06:42:24;6.43;;;5.82;;
15443;SDS011;7822;48.146;11.576;2022-08-30T06:44:57;8.07;;;6.28;;
15443;SDS011;7822;48.146;11.576;2022-08-30T06:47:25;7.03;;;6.32;;
15443;SDS011;7822;48.146;11.576;2022-08-30T06:49:54;6.45;;;5.82;;
15443;SDS011;7822;48.146;11.576;2022-08-30T06:52:23;6.68;;;5.93;;
15443;SDS011;7822;48.146;11.576;2022-08-30T06:54:52;7.63;;;6.55;;
15443;SDS011;7822;48.146;11.576;2022-08-30T06:57:20;6.50;;;5.90;;
15443;SDS011;7822;48.146;11.576;2022-08-30T06:59:49;6.20;;;5.53;;
15443;SDS011;7822;48.146;11.576;2022-08-30T07:02:22;6.57;;;5.90;;
15443;SDS011;7822;48.146;11.576;2022-08-30T07:04:51;7.47;;;6.75;;
15443;SDS011;7822;48.146;11.576;2022-08-30T07:07:19;6.82;;;6.32;;
15443;SDS011;7822;48.146;11.576;2022-08-30T07:09:46;7.22;;;6.50;;
15443;SDS011;7822;48.146;11.576;2022-08-30T07:12:14;7.85;;;7.05;;
15443;SDS011;7822;48.146;11.576;2022-08-30T07:14:42;7.03;;;6.32;;
15443;SDS011;7822;48.146;11.576;2022-08-30T07:17:11;8.55;;;6.45;;
15443;SDS011;7822;48.146;11.576;2022-08-30T07:20:00;6.70;;;6.10;;
15443;SDS011;7822;48.146;11.576;2022-08-30T07:22:28;6.72;;;6.07;;
15443;SDS011;7822;48.146;11.576;2022-08-30T07:24:56;9.45;;;7.07;;
15443;SDS011;7822;48.146;11.576;2022-08-30T07:27:23;7.82;;;6.90;;
15443;SDS011;7822;48.146;11.576;2022-08-30T07:29:51;7.40;;;6.55;;
15443;SDS011;7822;48.146;11.576;2022-08-30T07:32:20;6.35;;;5.80;;
15443;SDS011;7822;48.146;11.576;2022-08-30T07:34:48;7.25;;;6.65;;
15443;SDS011;7822;48.146;11.576;2022-08-30T07:37:17;6.45;;;5.82;;
15443;SDS011;7822;48.146;11.576;2022-08-30T07:39:44;7.40;;;6.57;;
15443;SDS011;7822;48.146;11.576;2022-08-30T07:42:13;7.45;;;6.75;;
15443;SDS011;7822;48.146;11.576;2022-08-30T07:44:41;7.25;;;6.65;;
15443;SDS011;7822;48.146;11.576;2022-08-30T07:47:09;7.57;;;6.88;;
15443;SDS011;7822;48.146;11.576;2022-08-30T07:49:38;8.00;;;7.30;;
15443;SDS011;7822;48.146;11.576;2022-08-30T07:52:06;9.70;;;6.22;;
15443;SDS011;7822;48.146;11.576;2022-08-30T07:54:34;8.55;;;7.00;;
15443;SDS011;7822;48.146;11.576;2022-08-30T07:57:02;7.30;;;6.60;;
15443;SDS011;7822;48.146;11.576;2022-08-30T07:59:29;8.48;;;7.57;;
15443;SDS011;7822;48.146;11.576;2022-08-30T08:02:01;7.47;;;6.78;;
15443;SDS011;7822;48.146;11.576;2022-08-30T08:04:29;7.05;;;6.35;;
15443;SDS011;7822;48.146;11.576;2022-08-30T08:06:59;8.23;;;6.95;;
15443;SDS011;7822;48.146;11.576;2022-08-30T08:09:27;6.88;;;6.28;;
15443;SDS011;7822;48.146;11.576;2022-08-30T08:11:55;7.43;;;6.65;;
15443;SDS011;7822;48.146;11.576;2022-08-30T08:14:22;7.07;;;6.38;;
15443;SDS011;7822;48.146;11.576;2022-08-30T08:16:50;6.60;;;6.00;;
15443;SDS011;7822;48.146;11.576;2022-08-30T08:19:18;7.60;;;6.90;;
15443;SDS011;7822;48.146;11.576;2022-08-30T08:21:46;6.70;;;6.07;;
15443;SDS011;7822;48.146;11.576;2022-08-30T08:24:35;7.15;;;6.45;;
15443;SDS011;7822;48.146;11.576;2022-08-30T08:27:03;7.32;;;6.70;;
15443;SDS011;7822;48.146;11.576;2022-08-30T08:29:31;7.30;;;6.53;;
15443;SDS011;7822;48.146;11.576;2022-08-30T08:31:59;7.50;;;6.80;;
15443;SDS011;7822;48.146;11.576;2022-08-30T08:34:27;7.65;;;6.95;;
15443;SDS011;7822;48.146;11.576;2022-08-30T08:36:54;7.18;;;6.57;;
15443;SDS011;7822;48.146;11.576;2022-08-30T08:39:22;6.85;;;6.25;;
15443;SDS011;7822;48.146;11.576;2022-08-30T08:41:54;7.13;;;6.43;;
15443;SDS011;7822;48.146;11.576;2022-08-30T08:44:34;8.00;;;7.18;;
15443;SDS011;7822;48.146;11.576;2022-08-30T08:47:10;6.75;;;6.20;;
15443;SDS011;7822;48.146;11.576;2022-08-30T08:49:42;7.53;;;6.82;;
15443;SDS011;7822;48.146;11.576;2022-08-30T08:52:14;6.82;;;6.22;;
15443;SDS011;7822;48.146;11.576;2022-08-30T08:55:06;7.03;;;6.43;;
15443;SDS011;7822;48.146;11.576;2022-08-30T08:57:37;7.13;;;6.53;;
15443;SDS011;7822;48.146;11.576;2022-08-30T09:00:05;6.70;;;6.13;;
15443;SDS011;7822;48.146;11.576;2022-08-30T09:02:37;6.75;;;6.20;;
15443;SDS011;7822;48.146;11.576;2022-08-30T09:05:08;7.05;;;6.35;;
15443;SDS011;7822;48.146;11.576;2022-08-30T09:07:40;7.05;;;6.38;;
15443;SDS011;7822;48.146;11.576;2022-08-30T09:10:13;6.90;;;6.20;;
15443;SDS011;7822;48.146;11.576;2022-08-30T09:12:49;7.25;;;6.65;;
15443;SDS011;7822;48.146;11.576;2022-08-30T09:15:25;7.75;;;6.38;;
15443;SDS011;7822;48.146;11.576;2022-08-30T09:17:57;6.85;;;6.15;;
15443;SDS011;7822;48.146;11.576;2022-08-30T09:20:29;7.63;;;6.85;;
15443;SDS011;7822;48.146;11.576;2022-08-30T09:23:10;6.93;;;6.22;;
15443;SDS011;7822;48.146;11.576;2022-08-30T09:25:50;7.47;;;6.78;;
15443;SDS011;7822;48.146;11.576;2022-08-30T09:28:22;7.28;;;6.60;;
15443;SDS011;7822;48.146;11.576;2022-08-30T09:31:02;6.90;;;6.30;;
15443;SDS011;7822;48.146;11.576;2022-08-30T09:33:37;7.97;;;6.47;;
15443;SDS011;7822;48.146;11.576;2022-08-30T09:36:09;6.10;;;5.55;;
15443;SDS011;7822;48.146;11.576;2022-08-30T09:38:40;7.07;;;5.70;;
15443;SDS011;7822;48.146;11.576;2022-08-30T09:41:28;6.38;;;5.78;;
15443;SDS011;7822;48.146;11.576;2022-08-30T09:44:06;6.25;;;5.65;;
15443;SDS011;7822;48.146;11.576;2022-08-30T09:46:42;7.35;;;5.85;;
15443;SDS011;7822;48.146;11.576;2022-08-30T09:49:29;7.78;;;6.07;;
15443;SDS011;7822;48.146;11.576;2022-08-30T09:52:16;6.25;;;5.65;;
15443;SDS011;7822;48.146;11.576;2022-08-30T09:54:59;7.32;;;6.63;;
15443;SDS011;7822;48.146;11.576;2022-08-30T09:57:36;7.38;;;6.68;;
15443;SDS011;7822;48.146;11.576;2022-08-30T10:00:14;7.25;;;6.63;;
15443;SDS011;7822;48.146;11.576;2022-08-30T10:05:35;6.97;;;5.68;;
15443;SDS011;7822;48.146;11.576;2022-08-30T10:08:14;6.35;;;5.43;;
15443;SDS011;7822;48.146;11.576;2022-08-30T10:10:51;6.25;;;5.38;;
15443;SDS011;7822;48.146;11.576;2022-08-30T10:13:33;6.22;;;5.70;;
15443;SDS011;7822;48.146;11.576;2022-08-30T10:16:14;6.10;;;5.53;;
15443;SDS011;7822;48.146;11.576;2022-08-30T10:18:50;6.63;;;6.03;;
15443;SDS011;7822;48.146;11.576;2022-08-30T10:21:32;6.70;;;5.82;;
15443;SDS011;7822;48.146;11.576;2022-08-30T10:24:04;6.38;;;5.47;;
15443;SDS011;7822;48.146;11.576;2022-08-30T10:26:38;6.70;;;6.05;;
15443;SDS011;7822;48.146;11.576;2022-08-30T10:29:10;6.35;;;5.72;;
15443;SDS011;7822;48.146;11.576;2022-08-30T10:31:45;6.63;;;5.72;;
15443;SDS011;7822;48.146;11.576;2022-08-30T10:34:19;6.75;;;5.35;;
15443;SDS011;7822;48.146;11.576;2022-08-30T10:36:53;6.28;;;5.68;;
15443;SDS011;7822;48.146;11.576;2022-08-30T10:39:25;6.07;;;5.53;;
15443;SDS011;7822;48.146;11.576;2022-08-30T10:41:59;5.88;;;5.38;;
15443;SDS011;7822;48.146;11.576;2022-08-30T10:44:33;6.13;;;5.53;;
15443;SDS011;7822;48.146;11.576;2022-08-30T10:47:11;5.60;;;5.10;;
15443;SDS011;7822;48.146;11.576;2022-08-30T10:49:49;5.85;;;4.97;;
15443;SDS011;7822;48.146;11.576;2022-08-30T10:52:24;5.90;;;4.95;;
15443;SDS011;7822;48.146;11.576;2022-08-30T10:55:00;5.22;;;4.78;;
15443;SDS011;7822;48.146;11.576;2022-08-30T10:57:35;5.60;;;5.10;;
15443;SDS011;7822;48.146;11.576;2022-08-30T11:00:08;5.20;;;4.70;;
15443;SDS011;7822;48.146;11.576;2022-08-30T11:11:38;6.18;;;5.57;;
15443;SDS011;7822;48.146;11.576;2022-08-30T11:14:22;5.88;;;5.25;;
15443;SDS011;7822;48.146;11.576;2022-08-30T11:16:51;6.25;;;5.65;;
15443;SDS011;7822;48.146;11.576;2022-08-30T11:19:23;5.90;;;5.40;;
15443;SDS011;7822;48.146;11.576;2022-08-30T11:22:07;5.90;;;5.40;;
15443;SDS011;7822;48.146;11.576;2022-08-30T11:27:47;5.30;;;4.90;;
15443;SDS011;7822;48.146;11.576;2022-08-30T11:33:39;6.05;;;5.55;;
15443;SDS011;7822;48.146;11.576;2022-08-30T11:36:58;5.35;;;4.95;;
15443;SDS011;7822;48.146;11.576;2022-08-30T11:42:43;5.90;;;5.40;;
15443;SDS011;7822;48.146;11.576;2022-08-30T11:51:32;6.13;;;5.63;;
15443;SDS011;7822;48.146;11.576;2022-08-30T11:54:42;6.53;;;5.93;;
15443;SDS011;7822;48.146;11.576;2022-08-30T11:57:24;5.88;;;5.38;;
15443;SDS011;7822;48.146;11.576;2022-08-30T12:00:01;6.15;;;5.55;;
15443;SDS011;7822;48.146;11.576;2022-08-30T12:02:38;5.95;;;5.45;;
15443;SDS011;7822;48.146;11.576;2022-08-30T12:17:24;6.47;;;5.93;;
15443;SDS011;7822;48.146;11.576;2022-08-30T12:20:15;7.05;;;6.35;;
15443;SDS011;7822;48.146;11.576;2022-08-30T12:22:47;6.65;;;5.93;;
15443;SDS011;7822;48.146;11.576;2022-08-30T12:25:19;6.72;;;6.20;;
15443;SDS011;7822;48.146;11.576;2022-08-30T12:28:06;6.28;;;5.78;;
15443;SDS011;7822;48.146;11.576;2022-08-30T12:30:41;6.15;;;5.65;;
15443;SDS011;7822;48.146;11.576;2022-08-30T12:33:12;6.30;;;5.80;;
15443;SDS011;7822;48.146;11.576;2022-08-30T12:35:55;6.63;;;6.03;;
15443;SDS011;7822;48.146;11.576;2022-08-30T12:38:24;6.88;;;6.18;;
15443;SDS011;7822;48.146;11.576;2022-08-30T12:40:55;6.63;;;6.03;;
15443;SDS011;7822;48.146;11.576;2022-08-30T12:43:28;6.57;;;6.07;;
15443;SDS011;7822;48.146;11.576;2022-08-30T12:46:07;6.30;;;5.80;;
15443;SDS011;7822;48.146;11.576;2022-08-30T12:48:40;6.22;;;5.63;;
15443;SDS011;7822;48.146;11.576;2022-08-30T12:51:23;6.32;;;5.82;;
15443;SDS011;7822;48.146;11.576;2022-08-30T12:54:04;6.05;;;5.53;;
15443;SDS011;7822;48.146;11.576;2022-08-30T12:56:46;6.50;;;5.70;;
15443;SDS011;7822;48.146;11.576;2022-08-30T13:02:23;6.60;;;6.00;;
15443;SDS011;7822;48.146;11.576;2022-08-30T13:04:53;6.10;;;5.50;;
15443;SDS011;7822;48.146;11.576;2022-08-30T13:07:26;6.30;;;5.70;;
15443;SDS011;7822;48.146;11.576;2022-08-30T13:09:59;6.22;;;5.63;;
15443;SDS011;7822;48.146;11.576;2022-08-30T13:12:30;5.72;;;5.28;;
15443;SDS011;7822;48.146;11.576;2022-08-30T13:15:11;6.07;;;5.45;;
15443;SDS011;7822;48.146;11.576;2022-08-30T13:17:44;6.57;;;5.95;;
15443;SDS011;7822;48.146;11.576;2022-08-30T13:20:20;7.22;;;6.57;;
15443;SDS011;7822;48.146;11.576;2022-08-30T13:23:01;6.68;;;6.07;;
15443;SDS011;7822;48.146;11.576;2022-08-30T13:25:32;6.65;;;6.05;;
15443;SDS011;7822;48.146;11.576;2022-08-30T13:28:02;6.03;;;5.53;;
15443;SDS011;7822;48.146;11.576;2022-08-30T13:30:30;6.32;;;5.55;;
15443;SDS011;7822;48.146;11.576;2022-08-30T13:33:00;5.68;;;5.18;;
15443;SDS011;7822;48.146;11.576;2022-08-30T13:35:29;6.35;;;5.75;;
15443;SDS011;7822;48.146;11.576;2022-08-30T13:37:58;5.95;;;5.45;;
15443;SDS011;7822;48.146;11.576;2022-08-30T13:40:29;5.88;;;5.47;;
15443;SDS011;7822;48.146;11.576;2022-08-30T13:42:57;5.80;;;5.40;;
15443;SDS011;7822;48.146;11.576;2022-08-30T13:45:25;6.00;;;5.40;;
15443;SDS011;7822;48.146;11.576;2022-08-30T13:48:09;6.55;;;5.43;;
15443;SDS011;7822;48.146;11.576;2022-08-30T13:50:42;5.97;;;5.50;;
15443;SDS011;7822;48.146;11.576;2022-08-30T13:53:10;6.40;;;5.78;;
15443;SDS011;7822;48.146;11.576;2022-08-30T13:55:38;5.80;;;5.30;;
15443;SDS011;7822;48.146;11.576;2022-08-30T13:58:07;5.75;;;5.15;;
15443;SDS011;7822;48.146;11.576;2022-08-30T14:00:39;5.45;;;5.05;;
15443;SDS011;7822;48.146;11.576;2022-08-30T14:03:06;5.95;;;5.40;;
15443;SDS011;7822;48.146;11.576;2022-08-30T14:05:36;5.85;;;5.25;;
15443;SDS011;7822;48.146;11.576;2022-08-30T14:08:16;6.25;;;5.65;;
15443;SDS011;7822;48.146;11.576;2022-08-30T14:11:06;5.50;;;5.00;;
15443;SDS011;7822;48.146;11.576;2022-08-30T14:13:34;5.53;;;4.85;;
15443;SDS011;7822;48.146;11.576;2022-08-30T14:16:04;5.50;;;5.00;;
15443;SDS011;7822;48.146;11.576;2022-08-30T14:18:53;5.40;;;4.82;;
15443;SDS011;7822;48.146;11.576;2022-08-30T14:21:23;4.97;;;4.57;;
15443;SDS011;7822;48.146;11.576;2022-08-30T14:23:52;5.20;;;4.78;;
15443;SDS011;7822;48.146;11.576;2022-08-30T14:26:22;4.97;;;4.57;;
15443;SDS011;7822;48.146;11.576;2022-08-30T14:28:59;4.90;;;4.50;;
15443;SDS011;7822;48.146;11.576;2022-08-30T14:31:27;5.22;;;4.65;;
15443;SDS011;7822;48.146;11.576;2022-08-30T14:33:58;4.82;;;4.40;;
15443;SDS011;7822;48.146;11.576;2022-08-30T14:36:30;5.18;;;4.72;;
15443;SDS011;7822;48.146;11.576;2022-08-30T14:38:58;5.38;;;4.88;;
15443;SDS011;7822;48.146;11.576;2022-08-30T14:41:26;5.45;;;4.95;;
15443;SDS011;7822;48.146;11.576;2022-08-30T14:43:54;5.18;;;4.78;;
15443;SDS011;7822;48.146;11.576;2022-08-30T14:46:22;5.75;;;4.43;;
15443;SDS011;7822;48.146;11.576;2022-08-30T14:48:52;4.75;;;4.35;;
15443;SDS011;7822;48.146;11.576;2022-08-30T14:51:21;5.10;;;4.65;;
15443;SDS011;7822;48.146;11.576;2022-08-30T14:53:51;5.25;;;4.75;;
15443;SDS011;7822;48.146;11.576;2022-08-30T14:58:57;5.43;;;4.35;;
15443;SDS011;7822;48.146;11.576;2022-08-30T15:01:25;5.00;;;4.60;;
15443;SDS011;7822;48.146;11.576;2022-08-30T15:03:52;5.18;;;4.20;;
15443;SDS011;7822;48.146;11.576;2022-08-30T15:06:20;4.90;;;4.50;;
15443;SDS011;7822;48.146;11.576;2022-08-30T15:08:47;5.13;;;4.72;;
15443;SDS011;7822;48.146;11.576;2022-08-30T15:11:15;4.88;;;4.50;;
15443;SDS011;7822;48.146;11.576;2022-08-30T15:13:43;4.55;;;4.15;;
15443;SDS011;7822;48.146;11.576;2022-08-30T15:16:12;4.60;;;4.20;;
15443;SDS011;7822;48.146;11.576;2022-08-30T15:23:44;4.68;;;4.38;;
15443;SDS011;7822;48.146;11.576;2022-08-30T15:26:10;4.95;;;4.55;;
15443;SDS011;7822;48.146;11.576;2022-08-30T15:28:37;5.70;;;5.20;;
15443;SDS011;7822;48.146;11.576;2022-08-30T15:31:03;4.63;;;4.22;;
15443;SDS011;7822;48.146;11.576;2022-08-30T15:33:34;5.30;;;4.80;;
15443;SDS011;7822;48.146;11.576;2022-08-30T15:36:02;5.20;;;4.55;;
15443;SDS011;7822;48.146;11.576;2022-08-30T15:38:31;4.45;;;4.10;;
15443;SDS011;7822;48.146;11.576;2022-08-30T15:40:59;4.38;;;4.07;;
15443;SDS011;7822;48.146;11.576;2022-08-30T15:48:27;5.32;;;4.75;;
15443;SDS011;7822;48.146;11.576;2022-08-30T15:50:55;5.07;;;4.68;;
15443;SDS011;7822;48.146;11.576;2022-08-30T15:53:22;4.88;;;4.40;;
15443;SDS011;7822;48.146;11.576;2022-08-30T15:55:48;5.18;;;4.78;;
15443;SDS011;7822;48.146;11.576;2022-08-30T15:58:16;5.10;;;4.70;;
15443;SDS011;7822;48.146;11.576;2022-08-30T16:00:42;5.22;;;4.63;;
15443;SDS011;7822;48.146;11.576;2022-08-30T16:03:10;4.95;;;4.55;;
15443;SDS011;7822;48.146;11.576;2022-08-30T16:05:37;5.10;;;4.60;;
15443;SDS011;7822;48.146;11.576;2022-08-30T16:13:08;5.30;;;4.80;;